메인 페이지
METAR-TAF:

METAR-TAF

공항 :

튀니스 카르타고 국제공항

튀니스, 튀니지

위도: 36-50N, 경도: 010-14E, 고도: 3m

현재 날씨관측

예보는 42분 전, 18:00시(UTC)에 발표되었습니다.
4kt북동풍과 남동풍을 오가는
온도 13°C
습도 77%
기압 1024 hPa
시정 10km 이상
고도 3300ft 상공 구름 조금

METAR: DTTA 201800Z 09004KT 040V140 9999 FEW033 13/09 Q1024 NOSIG

시각: 19:42 (18:42 UTC)

예보

예보는 1 시간 42분 전, 17:00시(UTC)에 발표되었습니다.
예보 대상 시간: 20일 18시부터 21일 18시까지 (UTC)
동북동7kt
시정 10km 이상
고도 3300ft 상공 구름 조금
확률 40% :
일시적
21일 02시부터 21일 08시까지 (UTC)
시정: 3000m
박무

TAF: DTTA 201700Z 2018/2118 06007KT 9999 FEW033 PROB40 TEMPO 2102/2108 3000 BR

4,000개 이상의 공항 관측 자료 및 예보 (METAR 및 TAF 보고).

지도상에서 검색 가능한 기상관측소가 노란 점과 빨간 점으로 표시되어 있습니다.

기상관측소 명을 보려면 표시 위로 마우스를 이동하세요.

날씨 관측과 예보를 보려면 클릭하세요.

지도 변경 : 확대하려면 엑스 표시가 있는 녹색 버튼, 축소하려면 빼기 표시가 있는 녹색 버튼, 다음 페이지의 지도를 보려면 녹색 화살표를 클릭하세요.


METAR-TAF: